createdAt,value
2019-01-20T00:01:31.883Z,13.50
2019-01-20T00:05:36.118Z,10.57
2019-01-20T00:09:39.934Z,9.73
2019-01-20T00:13:43.663Z,11.70
2019-01-20T00:17:47.411Z,11.83
2019-01-20T00:21:51.479Z,9.57
2019-01-20T00:25:54.976Z,11.43
2019-01-20T00:29:58.262Z,9.83
2019-01-20T00:34:01.639Z,11.17
2019-01-20T00:38:05.440Z,11.10
2019-01-20T00:42:08.818Z,11.47
2019-01-20T00:46:12.178Z,11.30
2019-01-20T00:50:15.770Z,8.90
2019-01-20T00:54:19.785Z,14.23
2019-01-20T00:58:23.550Z,15.80
2019-01-20T01:02:26.838Z,14.73
2019-01-20T01:06:30.694Z,11.47
2019-01-20T01:10:34.415Z,10.37
2019-01-20T01:14:38.102Z,9.53
2019-01-20T01:18:41.395Z,12.53
2019-01-20T01:22:45.219Z,11.87
2019-01-20T01:26:48.506Z,11.27
2019-01-20T01:30:51.802Z,11.87
2019-01-20T01:34:55.079Z,9.70
2019-01-20T01:38:58.391Z,16.93
2019-01-20T01:43:01.966Z,13.30
2019-01-20T01:47:05.778Z,11.40
2019-01-20T01:51:09.054Z,12.07
2019-01-20T01:55:12.983Z,10.43
2019-01-20T01:59:17.175Z,8.73
2019-01-20T02:03:20.906Z,9.80
2019-01-20T02:07:25.454Z,14.00
2019-01-20T02:11:28.750Z,9.83
2019-01-20T02:15:32.362Z,10.20
2019-01-20T02:19:35.746Z,13.60
2019-01-20T02:23:39.474Z,11.87
2019-01-20T02:27:42.790Z,13.03
2019-01-20T02:31:46.074Z,9.43
2019-01-20T02:35:49.725Z,10.60
2019-01-20T02:39:53.088Z,15.37
2019-01-20T02:43:56.838Z,10.53
2019-01-20T02:48:00.119Z,12.40
2019-01-20T02:52:03.422Z,11.87
2019-01-20T02:56:06.712Z,15.73
2019-01-20T03:00:14.582Z,12.40
2019-01-20T03:04:17.878Z,10.93
2019-01-20T03:08:21.727Z,12.70
2019-01-20T03:12:25.073Z,12.80
2019-01-20T03:16:28.527Z,12.50
2019-01-20T03:20:31.874Z,11.70
2019-01-20T03:24:35.236Z,12.70
2019-01-20T03:28:39.033Z,10.73
2019-01-20T03:32:42.456Z,12.87
2019-01-20T03:36:45.789Z,14.30
2019-01-20T03:40:49.127Z,11.03
2019-01-20T03:44:52.993Z,9.77
2019-01-20T03:48:56.466Z,10.33
2019-01-20T03:53:00.148Z,12.73
2019-01-20T03:57:03.642Z,14.67
2019-01-20T04:01:07.069Z,11.70
2019-01-20T04:05:11.734Z,10.27
2019-01-20T04:09:15.936Z,11.10
2019-01-20T04:13:19.386Z,11.37
2019-01-20T04:17:23.387Z,14.97
2019-01-20T04:21:26.750Z,10.33
2019-01-20T04:25:30.983Z,11.90
2019-01-20T04:29:34.992Z,11.23
2019-01-20T04:33:39.031Z,10.20
2019-01-20T04:37:42.389Z,10.90
2019-01-20T04:41:46.215Z,11.47
2019-01-20T04:45:50.054Z,12.00
2019-01-20T04:49:53.465Z,12.97
2019-01-20T04:53:57.136Z,12.00
2019-01-20T04:58:00.724Z,9.33
2019-01-20T05:02:05.140Z,18.07
2019-01-20T05:06:08.465Z,12.70
2019-01-20T05:10:12.661Z,11.40
2019-01-20T05:14:16.070Z,11.00
2019-01-20T05:18:20.227Z,13.23
2019-01-20T05:22:24.010Z,12.50
2019-01-20T05:26:27.870Z,13.47
2019-01-20T05:30:31.189Z,13.20
2019-01-20T05:34:34.567Z,13.90
2019-01-20T05:38:37.894Z,11.73
2019-01-20T05:42:45.855Z,12.60
2019-01-20T05:46:46.616Z,12.77
2019-01-20T05:50:50.599Z,14.10
2019-01-20T05:54:53.995Z,11.43
2019-01-20T05:58:57.350Z,15.47
2019-01-20T06:03:01.281Z,13.00
2019-01-20T06:07:05.141Z,12.80
2019-01-20T06:11:09.405Z,11.93
2019-01-20T06:15:14.087Z,16.37
2019-01-20T06:19:17.434Z,19.17
2019-01-20T06:23:20.777Z,13.57
2019-01-20T06:27:24.150Z,12.20
2019-01-20T06:31:27.852Z,11.93
2019-01-20T06:35:31.220Z,13.23
2019-01-20T06:39:34.867Z,12.80
2019-01-20T06:43:58.165Z,11.23
2019-01-20T06:48:01.603Z,11.50
2019-01-20T06:52:05.008Z,13.13
2019-01-20T06:56:08.371Z,13.80
2019-01-20T07:00:20.303Z,14.90
2019-01-20T07:04:23.688Z,16.93
2019-01-20T07:08:27.055Z,13.90
2019-01-20T07:12:30.436Z,13.40
2019-01-20T07:16:34.237Z,13.20
2019-01-20T07:20:37.691Z,12.33
2019-01-20T07:24:41.002Z,14.40
2019-01-20T07:28:44.852Z,13.80
2019-01-20T07:32:48.211Z,14.07
2019-01-20T07:36:51.603Z,17.90
2019-01-20T07:40:55.250Z,14.47
2019-01-20T07:44:58.599Z,11.87
2019-01-20T07:49:02.454Z,12.97
2019-01-20T07:53:05.864Z,13.60
2019-01-20T07:57:09.191Z,13.73
2019-01-20T08:01:12.586Z,13.43
2019-01-20T08:05:17.327Z,25.40
2019-01-20T08:09:21.193Z,27.03
2019-01-20T08:13:25.404Z,17.70
2019-01-20T08:17:29.005Z,15.33
2019-01-20T08:21:32.470Z,16.33
2019-01-20T08:25:36.426Z,16.77
2019-01-20T08:29:40.261Z,14.37
2019-01-20T08:33:43.625Z,16.10
2019-01-20T08:37:47.147Z,17.23
2019-01-20T08:41:50.747Z,18.90
2019-01-20T08:46:06.040Z,15.63
2019-01-20T08:50:11.088Z,15.77
2019-01-20T08:54:15.033Z,16.83
2019-01-20T08:58:19.139Z,15.53
2019-01-20T09:02:22.687Z,21.30
2019-01-20T09:06:26.288Z,25.20
2019-01-20T09:10:30.523Z,20.23
2019-01-20T09:14:34.621Z,18.10
2019-01-20T09:18:38.128Z,22.77
2019-01-20T09:22:41.564Z,18.90
2019-01-20T09:26:45.300Z,21.83
2019-01-20T09:30:48.911Z,19.13
2019-01-20T09:34:52.434Z,21.80
2019-01-20T09:38:55.911Z,21.63
2019-01-20T09:43:00.048Z,24.33
2019-01-20T09:47:03.650Z,25.00
2019-01-20T09:51:07.041Z,20.93
2019-01-20T09:55:10.668Z,21.87
2019-01-20T09:59:14.948Z,22.10
2019-01-20T10:03:18.924Z,21.42
2019-01-20T10:07:22.501Z,18.43
2019-01-20T10:11:26.316Z,19.70
2019-01-20T10:15:30.934Z,14.83
2019-01-20T10:19:34.261Z,17.80
2019-01-20T10:23:37.624Z,11.57
2019-01-20T10:27:40.966Z,12.10
2019-01-20T10:31:44.308Z,10.47
2019-01-20T10:36:02.335Z,12.87
2019-01-20T10:40:06.418Z,11.47
2019-01-20T10:44:10.010Z,14.03
2019-01-20T10:48:13.957Z,12.10
2019-01-20T10:52:17.824Z,12.63
2019-01-20T10:56:21.412Z,11.37
2019-01-20T11:00:26.114Z,12.67
2019-01-20T11:04:29.426Z,12.47
2019-01-20T11:08:32.925Z,9.70
2019-01-20T11:12:36.383Z,11.50
2019-01-20T11:16:40.668Z,12.20
2019-01-20T11:20:45.613Z,12.40
2019-01-20T11:24:49.131Z,11.90
2019-01-20T11:28:52.422Z,11.87
2019-01-20T11:32:55.843Z,11.87
2019-01-20T11:36:59.364Z,16.10
2019-01-20T11:41:02.682Z,11.70
2019-01-20T11:45:06.714Z,11.00
2019-01-20T11:49:10.739Z,14.47
2019-01-20T11:53:14.154Z,11.90
2019-01-20T11:57:17.996Z,10.97
2019-01-20T12:01:21.758Z,11.97
2019-01-20T12:05:25.087Z,12.97
2019-01-20T12:09:28.435Z,13.77
2019-01-20T12:13:31.824Z,12.50
2019-01-20T12:17:35.654Z,15.77
2019-01-20T12:21:38.942Z,12.83
2019-01-20T12:25:42.222Z,20.37
2019-01-20T12:29:51.837Z,15.60
2019-01-20T12:33:51.307Z,14.77
2019-01-20T12:37:55.386Z,12.93
2019-01-20T12:41:59.098Z,15.30
2019-01-20T12:46:02.398Z,13.63
2019-01-20T12:50:08.130Z,12.60
2019-01-20T12:54:11.427Z,14.47
2019-01-20T12:58:14.762Z,13.63
2019-01-20T13:02:18.062Z,15.90
2019-01-20T13:06:21.787Z,12.20
2019-01-20T13:10:25.182Z,14.60
2019-01-20T13:14:28.975Z,13.30
2019-01-20T13:18:33.147Z,19.70
2019-01-20T13:22:36.866Z,18.23
2019-01-20T13:26:40.166Z,11.90
2019-01-20T13:30:43.955Z,12.13
2019-01-20T13:34:47.270Z,12.57
2019-01-20T13:38:50.553Z,12.83
2019-01-20T13:42:53.930Z,14.13
2019-01-20T13:46:57.642Z,12.63
2019-01-20T13:51:00.994Z,13.07
2019-01-20T13:55:04.686Z,13.47
2019-01-20T13:59:08.014Z,17.23
2019-01-20T14:03:11.370Z,12.17
2019-01-20T14:07:15.190Z,15.30
2019-01-20T14:11:18.546Z,14.10
2019-01-20T14:15:21.926Z,17.33
2019-01-20T14:19:25.297Z,12.57
2019-01-20T14:23:28.672Z,17.80
2019-01-20T14:27:32.114Z,17.77
2019-01-20T14:31:36.051Z,16.73
2019-01-20T14:35:39.833Z,15.03
2019-01-20T14:39:43.247Z,16.90
2019-01-20T14:43:47.071Z,17.17
2019-01-20T14:47:51.218Z,14.70
2019-01-20T14:51:54.991Z,18.43
2019-01-20T14:55:58.365Z,15.80
2019-01-20T15:00:01.782Z,17.50
2019-01-20T15:04:05.285Z,20.70
2019-01-20T15:08:08.758Z,16.77
2019-01-20T15:12:12.208Z,16.73
2019-01-20T15:16:15.992Z,14.70
2019-01-20T15:20:20.370Z,16.50
2019-01-20T15:24:25.093Z,17.20
2019-01-20T15:28:28.669Z,14.93
2019-01-20T15:32:32.066Z,16.03
2019-01-20T15:36:35.610Z,18.43
2019-01-20T15:40:39.018Z,15.50
2019-01-20T15:44:42.392Z,16.00
2019-01-20T15:48:46.718Z,15.47
2019-01-20T15:52:50.153Z,14.53
2019-01-20T15:56:53.958Z,14.13
2019-01-20T16:00:57.882Z,15.23
2019-01-20T16:05:01.360Z,17.03
2019-01-20T16:09:08.771Z,17.37
2019-01-20T16:13:12.506Z,18.53
2019-01-20T16:17:17.983Z,16.53
2019-01-20T16:21:21.875Z,15.87
2019-01-20T16:25:28.200Z,19.17
2019-01-20T16:29:32.150Z,16.80
2019-01-20T16:33:35.535Z,19.27
2019-01-20T16:37:38.986Z,17.80
2019-01-20T16:41:42.445Z,16.60
2019-01-20T16:45:46.488Z,21.03
2019-01-20T16:49:50.408Z,16.70
2019-01-20T16:53:54.229Z,20.70
2019-01-20T16:57:57.655Z,19.10
2019-01-20T17:02:01.535Z,17.07
2019-01-20T17:06:05.466Z,20.60
2019-01-20T17:10:11.142Z,19.43
2019-01-20T17:14:14.499Z,20.00
2019-01-20T17:18:18.312Z,21.87
2019-01-20T17:22:22.573Z,20.30
2019-01-20T17:26:25.900Z,21.20
2019-01-20T17:30:31.717Z,23.67
2019-01-20T17:34:35.082Z,22.13
2019-01-20T17:38:39.068Z,20.13
2019-01-20T17:42:42.538Z,23.00
2019-01-20T17:46:45.899Z,21.03
2019-01-20T17:50:49.832Z,22.07
2019-01-20T17:54:53.974Z,26.80
2019-01-20T17:58:57.288Z,24.03
2019-01-20T18:03:00.796Z,25.13
2019-01-20T18:07:04.370Z,25.53
2019-01-20T18:11:07.703Z,29.37
2019-01-20T18:15:11.594Z,22.60
2019-01-20T18:19:15.150Z,26.33
2019-01-20T18:23:19.020Z,29.90
2019-01-20T18:27:22.946Z,31.50
2019-01-20T18:31:26.404Z,26.67
2019-01-20T18:35:30.098Z,22.87
2019-01-20T18:39:33.999Z,24.60
2019-01-20T18:43:37.392Z,28.90
2019-01-20T18:47:41.391Z,29.23
2019-01-20T18:51:44.860Z,31.27
2019-01-20T18:55:48.312Z,24.60
2019-01-20T18:59:52.189Z,24.00
2019-01-20T19:03:56.346Z,26.63
2019-01-20T19:07:59.786Z,27.33
2019-01-20T19:12:04.553Z,25.20
2019-01-20T19:16:09.087Z,24.67
2019-01-20T19:20:14.220Z,27.97
2019-01-20T19:24:18.642Z,29.10
2019-01-20T19:28:22.002Z,32.30
2019-01-20T19:32:25.489Z,34.43
2019-01-20T19:36:28.824Z,28.30
2019-01-20T19:40:32.356Z,35.80
2019-01-20T19:44:36.225Z,31.30
2019-01-20T19:48:40.218Z,30.80
2019-01-20T19:52:43.717Z,30.80
2019-01-20T19:56:48.358Z,34.00
2019-01-20T20:00:51.839Z,60.93
2019-01-20T20:04:56.114Z,127.73
2019-01-20T20:09:00.527Z,67.07
2019-01-20T20:13:04.138Z,53.73
2019-01-20T20:17:07.897Z,43.37
2019-01-20T20:21:11.592Z,40.40
2019-01-20T20:25:15.888Z,35.87
2019-01-20T20:29:19.872Z,34.33
2019-01-20T20:33:23.465Z,33.80
2019-01-20T20:37:26.908Z,48.43
2019-01-20T20:41:31.338Z,42.67
2019-01-20T20:45:35.235Z,40.27
2019-01-20T20:49:38.826Z,47.57
2019-01-20T20:53:42.673Z,41.33
2019-01-20T20:57:46.215Z,35.87
2019-01-20T21:01:49.933Z,31.10
2019-01-20T21:05:53.211Z,39.23
2019-01-20T21:09:56.652Z,33.70
2019-01-20T21:13:59.979Z,35.60
2019-01-20T21:18:03.426Z,35.60
2019-01-20T21:22:06.925Z,36.23
2019-01-20T21:26:11.766Z,37.37
2019-01-20T21:30:17.972Z,40.30
2019-01-20T21:34:21.691Z,38.53
2019-01-20T21:38:25.225Z,42.50
2019-01-20T21:42:29.105Z,47.10
2019-01-20T21:46:32.586Z,47.23
2019-01-20T21:50:36.151Z,44.20
2019-01-20T21:54:39.984Z,37.43
2019-01-20T21:58:44.281Z,39.03
2019-01-20T22:02:47.885Z,42.77
2019-01-20T22:06:51.372Z,38.37
2019-01-20T22:10:54.726Z,34.63
2019-01-20T22:14:58.175Z,40.00
2019-01-20T22:19:01.514Z,43.33
2019-01-20T22:23:04.968Z,38.93
2019-01-20T22:27:08.324Z,37.17
2019-01-20T22:31:11.947Z,34.57
2019-01-20T22:35:16.362Z,39.50
2019-01-20T22:39:20.151Z,42.07
2019-01-20T22:43:23.948Z,41.83
2019-01-20T22:47:27.358Z,32.73
2019-01-20T22:51:30.723Z,30.63
2019-01-20T22:55:34.087Z,36.43
2019-01-20T22:59:37.477Z,29.90
2019-01-20T23:03:41.125Z,37.83
2019-01-20T23:07:45.035Z,37.53
2019-01-20T23:11:48.510Z,42.57
2019-01-20T23:15:52.389Z,44.80
2019-01-20T23:19:55.827Z,38.60
2019-01-20T23:23:59.644Z,34.77
2019-01-20T23:28:03.215Z,44.30
2019-01-20T23:32:07.095Z,35.60
2019-01-20T23:36:10.976Z,36.53
2019-01-20T23:40:14.536Z,39.20
2019-01-20T23:44:17.918Z,35.60
2019-01-20T23:48:21.303Z,36.97
2019-01-20T23:52:24.642Z,39.90
2019-01-20T23:56:27.996Z,38.30
